°F

Nearby METAR Reports

 

KRME - Rome/Griffiss Af, New York, USA
Distance from station: NNW 12mi, 19km
Updated: 12/17/2017 2:53am
Clear
Clear
 Wind from calm
Wind: Calm
Temperature: -0°F , -18°C
Dew Point: -6°F , -21°C
Humidity: 78%
Barometer: 30.26 inHg , 1024.7 hPa
Clouds: Clear
Visibility: 10 miles , 16 km
2017/12/17 07:53 KRME 170753Z AUTO 00000KT 10SM CLR M18/M21 A3026 RMK AO2 SLP256 T11831211 $
KSYR - Syracuse, New York, USA
Distance from station: W 42mi, 67km
Updated: 12/17/2017 2:54am
Clear
Clear
 Wind from calm
Wind: Calm
Temperature: 5°F , -15°C
Dew Point: 3°F , -16°C
Humidity: 92%
Barometer: 30.25 inHg , 1024.4 hPa
Clouds: Clear
Visibility: 10 miles , 16 km
2017/12/17 07:54 KSYR 170754Z 00000KT 10SM CLR M15/M16 A3025 RMK AO2 SLP247 T11501156
KN03 - Cortland, New York, USA
Distance from station: SW 58mi, 93km
Updated: 12/17/2017 2:55am
Overcast
Overcast
 Wind from calm
Wind: Calm
Temperature: 18°F , -8°C
Dew Point: 14°F , -10°C
Humidity: 86%
Barometer: 30.20 inHg , 1022.7 hPa
Clouds: Overcast
Visibility: 10 miles , 16 km
Cloud details: Overcast 2400 ft
2017/12/17 07:55 KN03 170755Z AUTO 00000KT 10SM OVC024 M08/M10 A3020 RMK AO2
 
KFZY - Fulton, New York, USA
Distance from station: WNW 59mi, 95km
Updated: 12/17/2017 2:54am
Overcast
Overcast
 Wind from calm
Wind: Calm
Temperature: 9°F , -13°C
Dew Point: 5°F , -15°C
Humidity: 85%
Barometer: 30.25 inHg , 1024.4 hPa
Clouds: Overcast
Visibility: 10 miles , 16 km
Cloud details: Overcast 2400 ft
2017/12/17 07:54 KFZY 170754Z AUTO 00000KT 10SM OVC024 M13/M15 A3025 RMK AO2 SLP252 T11331150
KBGM - Binghamton, New York, USA
Distance from station: SSW 69mi, 112km
Updated: 12/17/2017 2:53am
Overcast
Overcast
 Wind from WSW
Wind: WSW 3 mph , 6 km/h
Temperature: 19°F , -7°C
Dew Point: 12°F , -11°C
Humidity: 73%
Barometer: 30.16 inHg , 1021.3 hPa
Clouds: Overcast
Visibility: 10 miles , 16 km
Cloud details: Overcast 1900 ft
2017/12/17 07:53 KBGM 170753Z AUTO 25003KT 10SM OVC019 M07/M11 A3016 RMK AO2 SLP237 T10721106
KSCH - Schenectady Airp, New York, USA
Distance from station: ESE 70mi, 113km
Updated: 12/16/2017 8:47pm
NOT Current
Clear
Clear
 Wind from calm
Wind: Calm
Temperature: 21°F , -6°C
Dew Point: 18°F , -8°C
Humidity: 86%
Barometer: 30.17 inHg , 1021.7 hPa
Clouds: Clear
Visibility: 10 miles , 16 km
2017/12/17 01:47 KSCH 170147Z AUTO 00000KT 10SM CLR M06/M08 A3017 RMK LAST
 
KGTB - Fort Drum/Wheele, New York, USA
Distance from station: NNW 72mi, 116km
Updated: 12/17/2017 2:56am
Overcast
Overcast
 Wind from NE
Wind: NE 3 mph , 6 km/h
Temperature: 3°F , -16°C
Dew Point: -0°F , -18°C
Humidity: 85%
Barometer: 30.24 inHg , 1024 hPa
Clouds: Overcast
Visibility: 10 miles , 16 km
Cloud details: Overcast 12000 ft
2017/12/17 07:56 KGTB 170756Z AUTO 04003KT 10SM OVC120 M16/M18 A3024 RMK AO2 SLP255 T11601184 $
KITH - Ithaca/Tompkins, New York, USA
Distance from station: SW 73mi, 117km
Updated: 12/17/2017 1:56am
Overcast
Overcast
 Wind from N
Wind: N 3 mph , 6 km/h
Temperature: 21°F , -6°C
Dew Point: 14°F , -10°C
Humidity: 74%
Barometer: 30.18 inHg , 1022 hPa
Clouds: Overcast
Visibility: 10 miles , 16 km
Cloud details: Overcast 2400 ft
2017/12/17 06:56 KITH 170656Z AUTO 01003KT 10SM OVC024 M06/M10 A3018 RMK AO2 SLP238 T10611100
KART - Watertown, New York, USA
Distance from station: NNW 73mi, 118km
Updated: 12/17/2017 2:56am
Partly cloudy
Partly cloudy
 Wind from NE
Wind: NE 5 mph , 7 km/h
Temperature: 3°F , -16°C
Wind Chill: -7°F , -22°C
Dew Point: -0°F , -18°C
Humidity: 85%
Barometer: 30.29 inHg , 1025.7 hPa
Clouds: Partly cloudy
Visibility: 10 miles , 16 km
Cloud details: Partly cloudy 12000 ft
2017/12/17 07:56 KART 170756Z AUTO 05004KT 10SM SCT120 M16/M18 A3029 RMK AO2 SLP268 T11611178 $
 
KALB - Albany, New York, USA
Distance from station: ESE 78mi, 125km
Updated: 12/17/2017 2:51am
Clear
Clear
 Wind from N
Wind: N 5 mph , 7 km/h
Temperature: 14°F , -10°C
Wind Chill: 6°F , -14°C
Dew Point: 10°F , -12°C
Humidity: 85%
Barometer: 30.25 inHg , 1024.4 hPa
Clouds: Clear
Visibility: 10 miles , 16 km
2017/12/17 07:51 KALB 170751Z 35004KT 10SM CLR M10/M12 A3025 RMK AO2 SLP247 I1000 T11001122
KGFL - Glens Falls, New York, USA
Distance from station: ENE 85mi, 137km
Updated: 12/17/2017 2:53am
Clear
Clear
 Wind from calm
Wind: Calm
Temperature: -2°F , -19°C
Dew Point: -6°F , -21°C
Humidity: 84%
Barometer: 30.24 inHg , 1024 hPa
Clouds: Clear
Visibility: 10 miles , 16 km
2017/12/17 07:53 KGFL 170753Z AUTO 00000KT 10SM CLR M19/M21 A3024 RMK AO2 SLP255 I1000 T11891206
KPEO - Penn Yan, New York, USA
Distance from station: WSW 95mi, 152km
Updated: 12/17/2017 2:53am
Overcast
Overcast
 Wind from WNW
Wind: WNW 3 mph , 6 km/h
Temperature: 21°F , -6°C
Dew Point: 10°F , -12°C
Humidity: 63%
Barometer: 30.22 inHg , 1023.4 hPa
Clouds: Overcast
Visibility: 10 miles , 16 km
Cloud details: Overcast 2100 ft
2017/12/17 07:53 KPEO 170753Z AUTO 30003KT 10SM OVC021 M06/M12 A3022 RMK AO2 SLP250 T10561122
 
KMSV - Monticello, New York, USA
Distance from station: SSE 98mi, 158km
Updated: 12/17/2017 2:56am
Overcast
Overcast
 Wind from WSW
Wind: WSW 5 mph , 7 km/h
Temperature: 21°F , -6°C
Wind Chill: 14°F , -10°C
Dew Point: 18°F , -8°C
Humidity: 86%
Barometer: 30.18 inHg , 1022 hPa
Clouds: Overcast
Visibility: 10 miles , 16 km
Cloud details: Overcast 2500 ft
2017/12/17 07:56 KMSV 170756Z AUTO 25004KT 10SM OVC025 M06/M08 A3018 RMK AO2 SLP241 T10561083 FZRANO